sensor_id;sensor_type;location;lat;lon;timestamp;P1;durP1;ratioP1;P2;durP2;ratioP2
14125;SDS011;7141;49.484;11.242;2023-05-16T00:02:01;7.70;;;6.97;;
14125;SDS011;7141;49.484;11.242;2023-05-16T00:04:27;8.53;;;7.17;;
14125;SDS011;7141;49.484;11.242;2023-05-16T00:06:53;7.83;;;7.13;;
14125;SDS011;7141;49.484;11.242;2023-05-16T00:09:19;8.40;;;6.93;;
14125;SDS011;7141;49.484;11.242;2023-05-16T00:11:45;9.47;;;8.10;;
14125;SDS011;7141;49.484;11.242;2023-05-16T00:14:12;10.00;;;6.53;;
14125;SDS011;7141;49.484;11.242;2023-05-16T00:16:39;7.60;;;6.70;;
14125;SDS011;7141;49.484;11.242;2023-05-16T00:19:05;9.10;;;6.60;;
14125;SDS011;7141;49.484;11.242;2023-05-16T00:21:32;7.40;;;6.70;;
14125;SDS011;7141;49.484;11.242;2023-05-16T00:23:58;7.80;;;6.33;;
14125;SDS011;7141;49.484;11.242;2023-05-16T00:26:24;11.50;;;7.00;;
14125;SDS011;7141;49.484;11.242;2023-05-16T00:28:50;11.93;;;6.57;;
14125;SDS011;7141;49.484;11.242;2023-05-16T00:31:16;7.50;;;6.67;;
14125;SDS011;7141;49.484;11.242;2023-05-16T00:33:42;7.67;;;6.87;;
14125;SDS011;7141;49.484;11.242;2023-05-16T00:36:08;7.87;;;6.93;;
14125;SDS011;7141;49.484;11.242;2023-05-16T00:38:35;7.73;;;6.60;;
14125;SDS011;7141;49.484;11.242;2023-05-16T00:41:01;8.17;;;6.87;;
14125;SDS011;7141;49.484;11.242;2023-05-16T00:43:28;9.27;;;6.60;;
14125;SDS011;7141;49.484;11.242;2023-05-16T00:45:54;9.13;;;7.20;;
14125;SDS011;7141;49.484;11.242;2023-05-16T00:48:21;8.93;;;7.60;;
14125;SDS011;7141;49.484;11.242;2023-05-16T00:50:48;7.87;;;7.07;;
14125;SDS011;7141;49.484;11.242;2023-05-16T00:53:14;7.83;;;7.03;;
14125;SDS011;7141;49.484;11.242;2023-05-16T00:55:40;10.07;;;6.73;;
14125;SDS011;7141;49.484;11.242;2023-05-16T00:58:06;8.20;;;6.70;;
14125;SDS011;7141;49.484;11.242;2023-05-16T01:00:33;7.13;;;6.43;;
14125;SDS011;7141;49.484;11.242;2023-05-16T01:03:00;8.33;;;6.77;;
14125;SDS011;7141;49.484;11.242;2023-05-16T01:05:26;7.13;;;6.43;;
14125;SDS011;7141;49.484;11.242;2023-05-16T01:07:52;7.97;;;7.17;;
14125;SDS011;7141;49.484;11.242;2023-05-16T01:10:18;9.53;;;7.50;;
14125;SDS011;7141;49.484;11.242;2023-05-16T01:13:04;9.00;;;7.70;;
14125;SDS011;7141;49.484;11.242;2023-05-16T01:15:35;8.70;;;7.10;;
14125;SDS011;7141;49.484;11.242;2023-05-16T01:23:16;7.93;;;7.13;;
14125;SDS011;7141;49.484;11.242;2023-05-16T01:28:12;8.43;;;7.63;;
14125;SDS011;7141;49.484;11.242;2023-05-16T01:30:39;9.93;;;8.43;;
14125;SDS011;7141;49.484;11.242;2023-05-16T01:33:05;10.40;;;7.70;;
14125;SDS011;7141;49.484;11.242;2023-05-16T01:35:31;10.70;;;7.97;;
14125;SDS011;7141;49.484;11.242;2023-05-16T01:42:50;11.17;;;8.27;;
14125;SDS011;7141;49.484;11.242;2023-05-16T01:45:25;10.10;;;7.47;;
14125;SDS011;7141;49.484;11.242;2023-05-16T01:47:54;21.53;;;9.13;;
14125;SDS011;7141;49.484;11.242;2023-05-16T01:50:22;9.13;;;7.70;;
14125;SDS011;7141;49.484;11.242;2023-05-16T01:53:00;9.33;;;7.20;;
14125;SDS011;7141;49.484;11.242;2023-05-16T01:55:47;7.97;;;7.17;;
14125;SDS011;7141;49.484;11.242;2023-05-16T01:58:15;8.77;;;6.67;;
14125;SDS011;7141;49.484;11.242;2023-05-16T02:00:42;7.67;;;6.97;;
14125;SDS011;7141;49.484;11.242;2023-05-16T02:03:08;10.93;;;6.97;;
14125;SDS011;7141;49.484;11.242;2023-05-16T02:05:34;9.27;;;7.10;;
14125;SDS011;7141;49.484;11.242;2023-05-16T02:08:00;7.13;;;6.43;;
14125;SDS011;7141;49.484;11.242;2023-05-16T02:10:26;11.77;;;7.33;;
14125;SDS011;7141;49.484;11.242;2023-05-16T02:12:52;7.93;;;7.13;;
14125;SDS011;7141;49.484;11.242;2023-05-16T02:15:18;8.63;;;7.10;;
14125;SDS011;7141;49.484;11.242;2023-05-16T02:17:45;9.63;;;7.17;;
14125;SDS011;7141;49.484;11.242;2023-05-16T02:20:11;9.63;;;7.30;;
14125;SDS011;7141;49.484;11.242;2023-05-16T02:22:37;10.60;;;7.70;;
14125;SDS011;7141;49.484;11.242;2023-05-16T02:25:03;8.13;;;7.33;;
14125;SDS011;7141;49.484;11.242;2023-05-16T02:27:30;8.27;;;7.03;;
14125;SDS011;7141;49.484;11.242;2023-05-16T02:29:56;8.23;;;7.43;;
14125;SDS011;7141;49.484;11.242;2023-05-16T02:32:22;7.97;;;7.03;;
14125;SDS011;7141;49.484;11.242;2023-05-16T02:34:48;8.47;;;7.27;;
14125;SDS011;7141;49.484;11.242;2023-05-16T02:37:14;8.60;;;7.70;;
14125;SDS011;7141;49.484;11.242;2023-05-16T02:39:40;10.27;;;7.83;;
14125;SDS011;7141;49.484;11.242;2023-05-16T02:42:06;9.67;;;7.47;;
14125;SDS011;7141;49.484;11.242;2023-05-16T02:44:32;8.13;;;7.33;;
14125;SDS011;7141;49.484;11.242;2023-05-16T02:46:58;8.47;;;7.67;;
14125;SDS011;7141;49.484;11.242;2023-05-16T02:49:24;9.77;;;7.73;;
14125;SDS011;7141;49.484;11.242;2023-05-16T02:51:50;8.67;;;7.77;;
14125;SDS011;7141;49.484;11.242;2023-05-16T02:54:16;8.27;;;7.47;;
14125;SDS011;7141;49.484;11.242;2023-05-16T02:56:42;8.80;;;7.90;;
14125;SDS011;7141;49.484;11.242;2023-05-16T02:59:09;9.33;;;8.33;;
14125;SDS011;7141;49.484;11.242;2023-05-16T03:01:35;9.63;;;8.70;;
14125;SDS011;7141;49.484;11.242;2023-05-16T03:04:01;11.50;;;8.57;;
14125;SDS011;7141;49.484;11.242;2023-05-16T03:06:27;8.60;;;7.67;;
14125;SDS011;7141;49.484;11.242;2023-05-16T03:08:54;9.07;;;8.00;;
14125;SDS011;7141;49.484;11.242;2023-05-16T03:11:20;8.60;;;7.70;;
14125;SDS011;7141;49.484;11.242;2023-05-16T03:13:49;8.67;;;7.87;;
14125;SDS011;7141;49.484;11.242;2023-05-16T03:16:15;8.03;;;7.23;;
14125;SDS011;7141;49.484;11.242;2023-05-16T03:18:42;9.87;;;8.87;;
14125;SDS011;7141;49.484;11.242;2023-05-16T03:21:08;8.33;;;7.17;;
14125;SDS011;7141;49.484;11.242;2023-05-16T03:23:34;9.13;;;7.73;;
14125;SDS011;7141;49.484;11.242;2023-05-16T03:26:00;8.27;;;7.47;;
14125;SDS011;7141;49.484;11.242;2023-05-16T03:28:26;8.63;;;7.73;;
14125;SDS011;7141;49.484;11.242;2023-05-16T03:30:52;9.57;;;8.53;;
14125;SDS011;7141;49.484;11.242;2023-05-16T03:33:18;13.87;;;8.77;;
14125;SDS011;7141;49.484;11.242;2023-05-16T03:35:44;8.77;;;7.90;;
14125;SDS011;7141;49.484;11.242;2023-05-16T03:38:10;14.43;;;10.13;;
14125;SDS011;7141;49.484;11.242;2023-05-16T03:40:36;11.27;;;8.40;;
14125;SDS011;7141;49.484;11.242;2023-05-16T03:43:02;9.20;;;8.23;;
14125;SDS011;7141;49.484;11.242;2023-05-16T03:45:29;10.00;;;8.30;;
14125;SDS011;7141;49.484;11.242;2023-05-16T03:47:55;14.17;;;8.03;;
14125;SDS011;7141;49.484;11.242;2023-05-16T03:50:21;10.97;;;8.77;;
14125;SDS011;7141;49.484;11.242;2023-05-16T03:52:47;10.53;;;8.10;;
14125;SDS011;7141;49.484;11.242;2023-05-16T03:55:13;12.10;;;8.17;;
14125;SDS011;7141;49.484;11.242;2023-05-16T03:57:40;10.33;;;8.53;;
14125;SDS011;7141;49.484;11.242;2023-05-16T04:00:07;10.03;;;9.03;;
14125;SDS011;7141;49.484;11.242;2023-05-16T04:02:33;9.73;;;8.73;;
14125;SDS011;7141;49.484;11.242;2023-05-16T04:04:59;11.03;;;8.70;;
14125;SDS011;7141;49.484;11.242;2023-05-16T04:07:25;9.17;;;8.27;;
14125;SDS011;7141;49.484;11.242;2023-05-16T04:09:52;10.53;;;9.00;;
14125;SDS011;7141;49.484;11.242;2023-05-16T04:12:19;10.67;;;8.80;;
14125;SDS011;7141;49.484;11.242;2023-05-16T04:14:47;10.47;;;8.77;;
14125;SDS011;7141;49.484;11.242;2023-05-16T04:17:12;10.47;;;8.67;;
14125;SDS011;7141;49.484;11.242;2023-05-16T04:19:38;12.00;;;9.13;;
14125;SDS011;7141;49.484;11.242;2023-05-16T04:22:05;12.70;;;9.07;;
14125;SDS011;7141;49.484;11.242;2023-05-16T04:24:31;11.33;;;8.80;;
14125;SDS011;7141;49.484;11.242;2023-05-16T04:26:57;10.77;;;8.80;;
14125;SDS011;7141;49.484;11.242;2023-05-16T04:29:23;15.87;;;9.10;;
14125;SDS011;7141;49.484;11.242;2023-05-16T04:31:49;11.17;;;8.47;;
14125;SDS011;7141;49.484;11.242;2023-05-16T04:34:15;14.13;;;8.83;;
14125;SDS011;7141;49.484;11.242;2023-05-16T04:36:41;10.57;;;7.50;;
14125;SDS011;7141;49.484;11.242;2023-05-16T04:39:07;8.43;;;7.40;;
14125;SDS011;7141;49.484;11.242;2023-05-16T04:41:34;8.27;;;7.47;;
14125;SDS011;7141;49.484;11.242;2023-05-16T04:44:03;8.70;;;7.67;;
14125;SDS011;7141;49.484;11.242;2023-05-16T04:46:29;8.33;;;7.47;;
14125;SDS011;7141;49.484;11.242;2023-05-16T04:48:55;8.63;;;7.70;;
14125;SDS011;7141;49.484;11.242;2023-05-16T04:51:21;10.80;;;7.67;;
14125;SDS011;7141;49.484;11.242;2023-05-16T04:53:47;15.10;;;8.13;;
14125;SDS011;7141;49.484;11.242;2023-05-16T04:56:14;10.90;;;7.13;;
14125;SDS011;7141;49.484;11.242;2023-05-16T04:58:40;9.17;;;8.30;;
14125;SDS011;7141;49.484;11.242;2023-05-16T05:01:05;10.13;;;9.10;;
14125;SDS011;7141;49.484;11.242;2023-05-16T05:03:31;12.10;;;9.40;;
14125;SDS011;7141;49.484;11.242;2023-05-16T05:05:58;13.10;;;9.63;;
14125;SDS011;7141;49.484;11.242;2023-05-16T05:08:24;11.63;;;8.80;;
14125;SDS011;7141;49.484;11.242;2023-05-16T05:10:50;10.73;;;8.10;;
14125;SDS011;7141;49.484;11.242;2023-05-16T05:13:16;9.03;;;7.87;;
14125;SDS011;7141;49.484;11.242;2023-05-16T05:15:42;8.60;;;7.80;;
14125;SDS011;7141;49.484;11.242;2023-05-16T05:18:08;8.47;;;7.57;;
14125;SDS011;7141;49.484;11.242;2023-05-16T05:20:34;9.27;;;7.20;;
14125;SDS011;7141;49.484;11.242;2023-05-16T05:23:00;9.20;;;7.30;;
14125;SDS011;7141;49.484;11.242;2023-05-16T05:25:26;12.40;;;7.97;;
14125;SDS011;7141;49.484;11.242;2023-05-16T05:27:52;8.10;;;7.20;;
14125;SDS011;7141;49.484;11.242;2023-05-16T05:30:18;8.73;;;7.63;;
14125;SDS011;7141;49.484;11.242;2023-05-16T05:32:44;9.63;;;7.87;;
14125;SDS011;7141;49.484;11.242;2023-05-16T05:35:10;8.73;;;7.83;;
14125;SDS011;7141;49.484;11.242;2023-05-16T05:37:36;10.47;;;7.67;;
14125;SDS011;7141;49.484;11.242;2023-05-16T05:40:02;10.00;;;8.07;;
14125;SDS011;7141;49.484;11.242;2023-05-16T05:42:28;8.60;;;7.27;;
14125;SDS011;7141;49.484;11.242;2023-05-16T05:44:54;12.03;;;8.03;;
14125;SDS011;7141;49.484;11.242;2023-05-16T05:47:20;9.13;;;7.77;;
14125;SDS011;7141;49.484;11.242;2023-05-16T05:49:46;11.10;;;7.00;;
14125;SDS011;7141;49.484;11.242;2023-05-16T05:52:12;10.27;;;7.27;;
14125;SDS011;7141;49.484;11.242;2023-05-16T05:54:38;8.20;;;6.77;;
14125;SDS011;7141;49.484;11.242;2023-05-16T05:57:04;7.70;;;6.90;;
14125;SDS011;7141;49.484;11.242;2023-05-16T05:59:30;7.67;;;6.97;;
14125;SDS011;7141;49.484;11.242;2023-05-16T06:01:56;8.70;;;7.07;;
14125;SDS011;7141;49.484;11.242;2023-05-16T06:04:22;10.70;;;7.73;;
14125;SDS011;7141;49.484;11.242;2023-05-16T06:06:48;9.67;;;8.13;;
14125;SDS011;7141;49.484;11.242;2023-05-16T06:09:14;9.37;;;8.00;;
14125;SDS011;7141;49.484;11.242;2023-05-16T06:11:41;10.10;;;7.77;;
14125;SDS011;7141;49.484;11.242;2023-05-16T06:14:09;9.60;;;8.40;;
14125;SDS011;7141;49.484;11.242;2023-05-16T06:16:35;10.03;;;7.87;;
14125;SDS011;7141;49.484;11.242;2023-05-16T06:19:03;9.10;;;8.00;;
14125;SDS011;7141;49.484;11.242;2023-05-16T06:21:29;9.43;;;7.87;;
14125;SDS011;7141;49.484;11.242;2023-05-16T06:23:55;8.83;;;7.93;;
14125;SDS011;7141;49.484;11.242;2023-05-16T06:26:21;13.27;;;8.70;;
14125;SDS011;7141;49.484;11.242;2023-05-16T06:28:47;8.90;;;8.00;;
14125;SDS011;7141;49.484;11.242;2023-05-16T06:31:13;9.23;;;7.93;;
14125;SDS011;7141;49.484;11.242;2023-05-16T06:33:39;10.40;;;8.00;;
14125;SDS011;7141;49.484;11.242;2023-05-16T06:36:05;8.70;;;7.80;;
14125;SDS011;7141;49.484;11.242;2023-05-16T06:38:31;9.37;;;8.43;;
14125;SDS011;7141;49.484;11.242;2023-05-16T06:40:57;10.43;;;8.77;;
14125;SDS011;7141;49.484;11.242;2023-05-16T06:43:23;9.40;;;7.40;;
14125;SDS011;7141;49.484;11.242;2023-05-16T06:45:49;12.63;;;7.67;;
14125;SDS011;7141;49.484;11.242;2023-05-16T06:48:16;11.17;;;7.20;;
14125;SDS011;7141;49.484;11.242;2023-05-16T06:50:45;12.10;;;7.90;;
14125;SDS011;7141;49.484;11.242;2023-05-16T06:53:11;7.87;;;7.10;;
14125;SDS011;7141;49.484;11.242;2023-05-16T06:55:37;8.47;;;7.40;;
14125;SDS011;7141;49.484;11.242;2023-05-16T06:58:03;8.10;;;7.30;;
14125;SDS011;7141;49.484;11.242;2023-05-16T07:00:29;9.90;;;7.43;;
14125;SDS011;7141;49.484;11.242;2023-05-16T07:02:56;8.17;;;7.17;;
14125;SDS011;7141;49.484;11.242;2023-05-16T07:05:22;7.90;;;6.90;;
14125;SDS011;7141;49.484;11.242;2023-05-16T07:07:48;8.10;;;7.30;;
14125;SDS011;7141;49.484;11.242;2023-05-16T07:10:14;8.20;;;7.37;;
14125;SDS011;7141;49.484;11.242;2023-05-16T07:12:40;7.50;;;6.73;;
14125;SDS011;7141;49.484;11.242;2023-05-16T07:15:07;8.67;;;7.00;;
14125;SDS011;7141;49.484;11.242;2023-05-16T07:17:33;10.03;;;6.47;;
14125;SDS011;7141;49.484;11.242;2023-05-16T07:19:59;7.77;;;6.37;;
14125;SDS011;7141;49.484;11.242;2023-05-16T07:22:25;7.87;;;5.67;;
14125;SDS011;7141;49.484;11.242;2023-05-16T07:24:51;7.00;;;6.30;;
14125;SDS011;7141;49.484;11.242;2023-05-16T07:27:21;8.83;;;5.70;;
14125;SDS011;7141;49.484;11.242;2023-05-16T07:29:47;9.73;;;6.47;;
14125;SDS011;7141;49.484;11.242;2023-05-16T07:32:13;8.37;;;5.40;;
14125;SDS011;7141;49.484;11.242;2023-05-16T07:34:39;7.90;;;6.30;;
14125;SDS011;7141;49.484;11.242;2023-05-16T07:37:05;7.30;;;6.20;;
14125;SDS011;7141;49.484;11.242;2023-05-16T07:39:36;10.53;;;5.80;;
14125;SDS011;7141;49.484;11.242;2023-05-16T07:42:02;8.83;;;5.97;;
14125;SDS011;7141;49.484;11.242;2023-05-16T07:44:28;6.67;;;5.90;;
14125;SDS011;7141;49.484;11.242;2023-05-16T07:46:55;9.07;;;6.03;;
14125;SDS011;7141;49.484;11.242;2023-05-16T07:49:21;7.20;;;6.43;;
14125;SDS011;7141;49.484;11.242;2023-05-16T07:51:47;8.23;;;6.17;;
14125;SDS011;7141;49.484;11.242;2023-05-16T07:54:13;7.97;;;6.03;;
14125;SDS011;7141;49.484;11.242;2023-05-16T07:56:39;7.90;;;5.53;;
14125;SDS011;7141;49.484;11.242;2023-05-16T07:59:06;9.23;;;5.93;;
14125;SDS011;7141;49.484;11.242;2023-05-16T08:01:32;6.77;;;6.07;;
14125;SDS011;7141;49.484;11.242;2023-05-16T08:03:58;7.10;;;5.87;;
14125;SDS011;7141;49.484;11.242;2023-05-16T08:06:24;7.00;;;6.27;;
14125;SDS011;7141;49.484;11.242;2023-05-16T08:08:50;7.60;;;6.47;;
14125;SDS011;7141;49.484;11.242;2023-05-16T08:11:17;10.57;;;6.70;;
14125;SDS011;7141;49.484;11.242;2023-05-16T08:13:43;9.53;;;6.73;;
14125;SDS011;7141;49.484;11.242;2023-05-16T08:16:09;8.03;;;6.23;;
14125;SDS011;7141;49.484;11.242;2023-05-16T08:18:35;9.07;;;6.37;;
14125;SDS011;7141;49.484;11.242;2023-05-16T08:21:01;10.37;;;6.57;;
14125;SDS011;7141;49.484;11.242;2023-05-16T08:23:27;8.40;;;6.33;;
14125;SDS011;7141;49.484;11.242;2023-05-16T08:25:53;6.93;;;6.23;;
14125;SDS011;7141;49.484;11.242;2023-05-16T08:28:19;10.13;;;6.10;;
14125;SDS011;7141;49.484;11.242;2023-05-16T08:30:45;8.30;;;6.13;;
14125;SDS011;7141;49.484;11.242;2023-05-16T08:33:12;9.67;;;6.33;;
14125;SDS011;7141;49.484;11.242;2023-05-16T08:35:41;6.23;;;5.63;;
14125;SDS011;7141;49.484;11.242;2023-05-16T08:38:07;6.57;;;5.87;;
14125;SDS011;7141;49.484;11.242;2023-05-16T08:40:33;6.93;;;5.63;;
14125;SDS011;7141;49.484;11.242;2023-05-16T08:42:59;8.77;;;6.23;;
14125;SDS011;7141;49.484;11.242;2023-05-16T08:45:25;9.03;;;6.40;;
14125;SDS011;7141;49.484;11.242;2023-05-16T08:47:53;7.83;;;5.17;;
14125;SDS011;7141;49.484;11.242;2023-05-16T08:50:20;7.13;;;5.50;;
14125;SDS011;7141;49.484;11.242;2023-05-16T08:52:46;6.13;;;5.53;;
14125;SDS011;7141;49.484;11.242;2023-05-16T08:55:16;6.23;;;4.80;;
14125;SDS011;7141;49.484;11.242;2023-05-16T08:57:44;8.80;;;5.70;;
14125;SDS011;7141;49.484;11.242;2023-05-16T09:00:10;6.43;;;5.73;;
14125;SDS011;7141;49.484;11.242;2023-05-16T09:02:40;10.53;;;5.17;;
14125;SDS011;7141;49.484;11.242;2023-05-16T09:05:15;7.83;;;5.37;;
14125;SDS011;7141;49.484;11.242;2023-05-16T09:07:42;8.23;;;4.90;;
14125;SDS011;7141;49.484;11.242;2023-05-16T09:10:08;6.07;;;4.87;;
14125;SDS011;7141;49.484;11.242;2023-05-16T09:12:34;6.93;;;4.70;;
14125;SDS011;7141;49.484;11.242;2023-05-16T09:15:01;4.87;;;4.40;;
14125;SDS011;7141;49.484;11.242;2023-05-16T09:17:33;5.00;;;4.23;;
14125;SDS011;7141;49.484;11.242;2023-05-16T09:20:04;7.40;;;5.33;;
14125;SDS011;7141;49.484;11.242;2023-05-16T09:22:32;8.10;;;5.33;;
14125;SDS011;7141;49.484;11.242;2023-05-16T09:24:58;6.67;;;4.90;;
14125;SDS011;7141;49.484;11.242;2023-05-16T09:27:24;5.77;;;5.03;;
14125;SDS011;7141;49.484;11.242;2023-05-16T09:29:51;5.83;;;4.40;;
14125;SDS011;7141;49.484;11.242;2023-05-16T09:32:17;6.50;;;4.30;;
14125;SDS011;7141;49.484;11.242;2023-05-16T09:34:44;5.87;;;4.80;;
14125;SDS011;7141;49.484;11.242;2023-05-16T09:37:13;4.87;;;4.30;;
14125;SDS011;7141;49.484;11.242;2023-05-16T09:39:40;5.83;;;5.23;;
14125;SDS011;7141;49.484;11.242;2023-05-16T09:42:11;6.07;;;4.67;;
14125;SDS011;7141;49.484;11.242;2023-05-16T09:44:38;8.83;;;5.67;;
14125;SDS011;7141;49.484;11.242;2023-05-16T09:47:04;8.30;;;5.93;;
14125;SDS011;7141;49.484;11.242;2023-05-16T09:49:31;8.90;;;7.13;;
14125;SDS011;7141;49.484;11.242;2023-05-16T09:52:00;8.27;;;7.00;;
14125;SDS011;7141;49.484;11.242;2023-05-16T09:54:30;9.03;;;7.20;;
14125;SDS011;7141;49.484;11.242;2023-05-16T09:56:57;7.10;;;6.40;;
14125;SDS011;7141;49.484;11.242;2023-05-16T09:59:23;9.07;;;7.40;;
14125;SDS011;7141;49.484;11.242;2023-05-16T10:01:49;9.40;;;7.30;;
14125;SDS011;7141;49.484;11.242;2023-05-16T10:04:15;13.00;;;7.57;;
14125;SDS011;7141;49.484;11.242;2023-05-16T10:06:41;8.90;;;8.10;;
14125;SDS011;7141;49.484;11.242;2023-05-16T10:09:11;11.23;;;7.67;;
14125;SDS011;7141;49.484;11.242;2023-05-16T10:11:38;8.83;;;8.00;;
14125;SDS011;7141;49.484;11.242;2023-05-16T10:14:06;9.97;;;7.77;;
14125;SDS011;7141;49.484;11.242;2023-05-16T10:16:34;7.57;;;6.60;;
14125;SDS011;7141;49.484;11.242;2023-05-16T10:19:01;8.83;;;7.73;;
14125;SDS011;7141;49.484;11.242;2023-05-16T10:21:28;10.83;;;6.90;;
14125;SDS011;7141;49.484;11.242;2023-05-16T10:23:55;9.37;;;6.93;;
14125;SDS011;7141;49.484;11.242;2023-05-16T10:26:21;8.13;;;6.40;;
14125;SDS011;7141;49.484;11.242;2023-05-16T10:28:48;11.10;;;6.37;;
14125;SDS011;7141;49.484;11.242;2023-05-16T10:31:14;11.53;;;6.30;;
14125;SDS011;7141;49.484;11.242;2023-05-16T10:33:41;7.87;;;6.50;;
14125;SDS011;7141;49.484;11.242;2023-05-16T10:36:07;6.67;;;5.53;;
14125;SDS011;7141;49.484;11.242;2023-05-16T10:38:34;6.80;;;6.03;;
14125;SDS011;7141;49.484;11.242;2023-05-16T10:41:01;7.73;;;5.87;;
14125;SDS011;7141;49.484;11.242;2023-05-16T10:43:30;6.27;;;5.47;;
14125;SDS011;7141;49.484;11.242;2023-05-16T10:46:07;6.83;;;5.83;;
14125;SDS011;7141;49.484;11.242;2023-05-16T10:48:38;7.00;;;5.63;;
14125;SDS011;7141;49.484;11.242;2023-05-16T10:53:50;7.03;;;5.80;;
14125;SDS011;7141;49.484;11.242;2023-05-16T10:56:21;6.03;;;5.47;;
14125;SDS011;7141;49.484;11.242;2023-05-16T10:58:47;9.13;;;5.10;;
14125;SDS011;7141;49.484;11.242;2023-05-16T11:06:27;7.73;;;5.60;;
14125;SDS011;7141;49.484;11.242;2023-05-16T11:08:59;6.40;;;5.20;;
14125;SDS011;7141;49.484;11.242;2023-05-16T11:16:51;7.50;;;5.73;;
14125;SDS011;7141;49.484;11.242;2023-05-16T11:24:55;7.10;;;5.63;;
14125;SDS011;7141;49.484;11.242;2023-05-16T11:27:25;6.27;;;4.90;;
14125;SDS011;7141;49.484;11.242;2023-05-16T11:29:52;10.37;;;5.57;;
14125;SDS011;7141;49.484;11.242;2023-05-16T11:32:19;6.40;;;4.73;;
14125;SDS011;7141;49.484;11.242;2023-05-16T11:34:48;6.03;;;5.13;;
14125;SDS011;7141;49.484;11.242;2023-05-16T11:37:15;6.83;;;5.10;;
14125;SDS011;7141;49.484;11.242;2023-05-16T11:39:41;5.23;;;4.73;;
14125;SDS011;7141;49.484;11.242;2023-05-16T11:42:07;5.20;;;4.70;;
14125;SDS011;7141;49.484;11.242;2023-05-16T11:44:34;4.90;;;4.40;;
14125;SDS011;7141;49.484;11.242;2023-05-16T11:47:00;7.07;;;4.67;;
14125;SDS011;7141;49.484;11.242;2023-05-16T11:49:29;6.83;;;4.60;;
14125;SDS011;7141;49.484;11.242;2023-05-16T11:51:55;5.37;;;4.70;;
14125;SDS011;7141;49.484;11.242;2023-05-16T11:54:21;4.97;;;4.40;;
14125;SDS011;7141;49.484;11.242;2023-05-16T11:56:48;6.47;;;4.20;;
14125;SDS011;7141;49.484;11.242;2023-05-16T11:59:14;4.77;;;4.20;;
14125;SDS011;7141;49.484;11.242;2023-05-16T12:01:40;5.27;;;4.77;;
14125;SDS011;7141;49.484;11.242;2023-05-16T12:04:10;7.50;;;4.80;;
14125;SDS011;7141;49.484;11.242;2023-05-16T12:06:36;5.60;;;4.67;;
14125;SDS011;7141;49.484;11.242;2023-05-16T12:09:03;4.63;;;4.17;;
14125;SDS011;7141;49.484;11.242;2023-05-16T12:11:38;4.17;;;3.80;;
14125;SDS011;7141;49.484;11.242;2023-05-16T12:14:05;5.07;;;4.10;;
14125;SDS011;7141;49.484;11.242;2023-05-16T12:16:31;7.27;;;3.70;;
14125;SDS011;7141;49.484;11.242;2023-05-16T12:18:57;6.73;;;4.20;;
14125;SDS011;7141;49.484;11.242;2023-05-16T12:21:24;4.40;;;3.80;;
14125;SDS011;7141;49.484;11.242;2023-05-16T12:23:52;6.33;;;4.00;;
14125;SDS011;7141;49.484;11.242;2023-05-16T12:26:24;6.60;;;4.57;;
14125;SDS011;7141;49.484;11.242;2023-05-16T12:28:53;4.13;;;3.73;;
14125;SDS011;7141;49.484;11.242;2023-05-16T12:31:22;9.10;;;4.07;;
14125;SDS011;7141;49.484;11.242;2023-05-16T12:33:51;6.47;;;3.60;;
14125;SDS011;7141;49.484;11.242;2023-05-16T12:36:18;7.00;;;4.50;;
14125;SDS011;7141;49.484;11.242;2023-05-16T12:38:46;4.93;;;4.00;;
14125;SDS011;7141;49.484;11.242;2023-05-16T12:41:19;6.13;;;4.40;;
14125;SDS011;7141;49.484;11.242;2023-05-16T12:43:46;6.47;;;4.13;;
14125;SDS011;7141;49.484;11.242;2023-05-16T12:46:13;5.93;;;4.10;;
14125;SDS011;7141;49.484;11.242;2023-05-16T12:48:39;4.20;;;3.80;;
14125;SDS011;7141;49.484;11.242;2023-05-16T12:51:11;4.33;;;3.60;;
14125;SDS011;7141;49.484;11.242;2023-05-16T12:53:42;7.03;;;4.00;;
14125;SDS011;7141;49.484;11.242;2023-05-16T12:56:09;5.10;;;3.80;;
14125;SDS011;7141;49.484;11.242;2023-05-16T12:58:41;5.40;;;3.70;;
14125;SDS011;7141;49.484;11.242;2023-05-16T13:01:07;4.80;;;4.30;;
14125;SDS011;7141;49.484;11.242;2023-05-16T13:03:33;9.33;;;4.43;;
14125;SDS011;7141;49.484;11.242;2023-05-16T13:06:00;5.00;;;4.07;;
14125;SDS011;7141;49.484;11.242;2023-05-16T13:08:28;8.40;;;4.67;;
14125;SDS011;7141;49.484;11.242;2023-05-16T13:10:54;5.60;;;3.50;;
14125;SDS011;7141;49.484;11.242;2023-05-16T13:13:20;4.53;;;4.13;;
14125;SDS011;7141;49.484;11.242;2023-05-16T13:15:46;5.80;;;4.20;;
14125;SDS011;7141;49.484;11.242;2023-05-16T13:18:13;3.80;;;3.50;;
14125;SDS011;7141;49.484;11.242;2023-05-16T13:20:39;4.47;;;3.77;;
14125;SDS011;7141;49.484;11.242;2023-05-16T13:23:05;9.00;;;4.17;;
14125;SDS011;7141;49.484;11.242;2023-05-16T13:25:32;5.10;;;4.60;;
14125;SDS011;7141;49.484;11.242;2023-05-16T13:27:58;5.83;;;4.63;;
14125;SDS011;7141;49.484;11.242;2023-05-16T13:30:24;4.63;;;4.03;;
14125;SDS011;7141;49.484;11.242;2023-05-16T13:32:50;4.60;;;4.07;;
14125;SDS011;7141;49.484;11.242;2023-05-16T13:35:17;5.43;;;3.60;;
14125;SDS011;7141;49.484;11.242;2023-05-16T13:37:43;4.40;;;3.83;;
14125;SDS011;7141;49.484;11.242;2023-05-16T13:40:09;4.43;;;3.70;;
14125;SDS011;7141;49.484;11.242;2023-05-16T13:42:36;4.90;;;3.03;;
14125;SDS011;7141;49.484;11.242;2023-05-16T13:45:02;3.97;;;3.50;;
14125;SDS011;7141;49.484;11.242;2023-05-16T13:47:29;4.53;;;4.00;;
14125;SDS011;7141;49.484;11.242;2023-05-16T13:49:55;4.63;;;4.03;;
14125;SDS011;7141;49.484;11.242;2023-05-16T13:52:21;5.17;;;3.93;;
14125;SDS011;7141;49.484;11.242;2023-05-16T13:54:46;4.97;;;4.10;;
14125;SDS011;7141;49.484;11.242;2023-05-16T13:57:12;4.00;;;3.50;;
14125;SDS011;7141;49.484;11.242;2023-05-16T13:59:38;4.70;;;3.60;;
14125;SDS011;7141;49.484;11.242;2023-05-16T14:02:04;4.80;;;3.30;;
14125;SDS011;7141;49.484;11.242;2023-05-16T14:04:30;3.73;;;3.33;;
14125;SDS011;7141;49.484;11.242;2023-05-16T14:06:57;4.60;;;3.13;;
14125;SDS011;7141;49.484;11.242;2023-05-16T14:09:23;4.37;;;3.23;;
14125;SDS011;7141;49.484;11.242;2023-05-16T14:11:49;4.60;;;3.20;;
14125;SDS011;7141;49.484;11.242;2023-05-16T14:14:15;5.73;;;2.83;;
14125;SDS011;7141;49.484;11.242;2023-05-16T14:16:41;5.57;;;2.90;;
14125;SDS011;7141;49.484;11.242;2023-05-16T14:19:09;4.60;;;3.50;;
14125;SDS011;7141;49.484;11.242;2023-05-16T14:21:35;4.13;;;2.73;;
14125;SDS011;7141;49.484;11.242;2023-05-16T14:24:01;3.73;;;2.80;;
14125;SDS011;7141;49.484;11.242;2023-05-16T14:26:27;4.77;;;3.00;;
14125;SDS011;7141;49.484;11.242;2023-05-16T14:28:53;2.80;;;2.60;;
14125;SDS011;7141;49.484;11.242;2023-05-16T14:31:20;3.90;;;3.07;;
14125;SDS011;7141;49.484;11.242;2023-05-16T14:33:47;3.00;;;2.70;;
14125;SDS011;7141;49.484;11.242;2023-05-16T14:36:13;4.33;;;2.37;;
14125;SDS011;7141;49.484;11.242;2023-05-16T14:38:39;2.73;;;2.20;;
14125;SDS011;7141;49.484;11.242;2023-05-16T14:41:05;3.73;;;2.33;;
14125;SDS011;7141;49.484;11.242;2023-05-16T14:43:31;2.80;;;2.20;;
14125;SDS011;7141;49.484;11.242;2023-05-16T14:45:57;3.20;;;2.37;;
14125;SDS011;7141;49.484;11.242;2023-05-16T14:48:23;3.00;;;2.40;;
14125;SDS011;7141;49.484;11.242;2023-05-16T14:50:49;4.10;;;2.53;;
14125;SDS011;7141;49.484;11.242;2023-05-16T14:53:15;3.07;;;2.60;;
14125;SDS011;7141;49.484;11.242;2023-05-16T14:55:41;4.20;;;2.83;;
14125;SDS011;7141;49.484;11.242;2023-05-16T14:58:08;2.50;;;2.20;;
14125;SDS011;7141;49.484;11.242;2023-05-16T15:00:34;3.33;;;2.60;;
14125;SDS011;7141;49.484;11.242;2023-05-16T15:03:00;3.03;;;2.40;;
14125;SDS011;7141;49.484;11.242;2023-05-16T15:05:26;3.60;;;2.70;;
14125;SDS011;7141;49.484;11.242;2023-05-16T15:07:53;2.43;;;2.13;;
14125;SDS011;7141;49.484;11.242;2023-05-16T15:10:19;3.43;;;2.50;;
14125;SDS011;7141;49.484;11.242;2023-05-16T15:12:45;5.37;;;2.50;;
14125;SDS011;7141;49.484;11.242;2023-05-16T15:15:11;2.67;;;2.30;;